默认 日期 大小 文件数 浏览量 最新下载 xml
pimp磁力链接相关资源由用户搜索指令自动获取,结果来源于网络,本站不存储任何资料,亦不承担任何责任,请于24小时内删除,搜索到1108个磁力,用时1ms。
    {"Jessie Volt, Julie Skyhigh - HOOKER LOOSER PIMP 02 540p_03.06.2016 .mp4": 1249018195}
创建时间: 2019-01-15 04:38:13 大小:1.16 GB 文件数量:1 热度:14 最近下载:2025-06-22 14:25:01
    ... -YO_-_IM_DOIN_OK.mp3": 4216455, "DJ Pimp - RnB Touch 22.jpg": 75488 ...
创建时间: 2019-01-15 07:23:47 大小:99.64 MB 文件数量:25 热度:4 最近下载:2022-11-15 19:46:23
    ... ": 79, "bitchin.rides.s03e10.de-pimp.my.ride.please.720p.web ... ": 1414341721, "bitchin.rides.s03e10.de-pimp.my.ride.please.720p.web ...
创建时间: 2019-01-16 00:01:48 大小:1.32 GB 文件数量:7 热度:8 最近下载:2025-01-28 03:59:03
    {"evilpi.jpg": 88443, "06-evil_pimp-devil_shit.mp3": 6881104, "20-evil_pimp-dead_bitch.mp3": 5633807, "18-evil_pimp-lay_it_down.mp3": 6126058, "09-evil_pimp-hate_you_hoe.mp3": 6599352, "10-evil_pimp-dead_niggers.mp3": 330797, "14-evil_pimp-hate_to_hear.mp3 ...
创建时间: 2019-01-16 01:08:50 大小:94.91 MB 文件数量:25 热度:4 最近下载:2022-11-12 10:21:44
    {"zry-pmrsr.r00": 50000000, "zry-pmrsr.r01": 50000000, "zry-pmrsr.r02": 50000000, "zry-pmrsr.r03": 50000000, "zry-pmrsr.r04": 50000000, "zry-pmrsr.r05": 50000000, "zry-pmrsr.r06": 50000000, "zry-pmrsr.r07": 50000000, "zry-pmrsr.r08": 50000000, "zry-pmrsr. ...
创建时间: 2019-01-16 02:02:01 大小:801.81 MB 文件数量:17 热度:7 最近下载:2025-03-25 20:20:02
    {"SE04E01 - 1976 AMC Pacer.avi": 183502848, "SE04E06 - 1989 Ford Taurus.avi": 183357440, "SE04E04 - 1988 Dodge Caravan.avi": 182337536, "SE04E07 - 1986 Buick Century.avi": 183365632, "SE04E02 - 2003 Toyota Corolla.avi": 183014104, "SE04E05 - 1968 Chevy ...
创建时间: 2019-01-16 17:38:40 大小:1.37 GB 文件数量:8 热度:3 最近下载:2022-11-12 10:36:01
    ... ).MP4": 1630976683}, "10. Bonus - PIMP Series": {"PIMP WINGMANSHIP WITH RSD TYLER.MP4 ... ": 2380585917, "PIMP GAMING 9s AND 10s WITH ... DEREK.MP4": 864091550, "PIMP SOCIAL MANIPULATION OF THE MATRIX ...
创建时间: 2019-01-17 20:06:03 大小:33.98 GB 文件数量:39 热度:13 最近下载:2025-01-25 22:21:03
    {"RARBG.com.txt": 34, "FutileStruggles.April.Punished.By.Her.Pimp-Part.1.XXX.HR.WMV-hUSHhUSH.wmv": 377171359}
创建时间: 2019-01-17 22:06:35 大小:359.7 MB 文件数量:2 热度:3 最近下载:2022-11-12 10:38:25
    {"Future - Long Live The Pimp ft. Trae Tha Truth (2013) [1080p].mp4": 100188798}
创建时间: 2019-01-17 22:08:21 大小:95.55 MB 文件数量:1 热度:4 最近下载:2022-11-12 10:17:35
    ... and the Larks - Shorty The Pimp.cue": 2465, "1998-Don Julian ... and the Larks - Shorty The Pimp.log": 4920, "1998-Don Julian ... and the Larks - Shorty The Pimp.flac": 425045871}
创建时间: 2019-01-18 12:14:23 大小:408.97 MB 文件数量:8 热度:4 最近下载:2022-11-15 20:31:36
    ... ": 9714601, "01 Long Live the Pimp.mp3": 4225754, "16 Country Thang ...
创建时间: 2019-01-18 15:09:30 大小:134.5 MB 文件数量:17 热度:4 最近下载:2022-11-12 09:32:20
    {"www.Torrentday.com.txt": 580, "First Read This Guide.txt": 580, "National.Geographic.Wild.Fish.Tank.Kings.Pimp.My.Tank.CONVERT.HDTV.XviD-AFG.avi": 396147828, "National.Geographic.Wild.Fish.Tank.Kings.Pimp.My.Tank.CONVERT.HDTV.XviD-AFG.nfo": 508}
创建时间: 2019-01-19 03:35:06 大小:377.8 MB 文件数量:4 热度:5 最近下载:2024-12-25 07:32:02
    {"20_Trey_Songz_-_Mojo.mp3": 2825333, "21_Trey_Songz_-_Over.mp3": 5634018, "01_Trey_Songz_-_Intro.mp3": 676189, "14_Trey_Songz_-_Flatline.mp3": 4855995, "16_Trey_Songz_-_Lil_Freak.mp3": 4865401, "03_Trey_Songz_-_I_Want_You.mp3": 5240313, "06_Trey_Songz_- ...
创建时间: 2019-01-20 19:57:02 大小:96.23 MB 文件数量:26 热度:8 最近下载:2025-08-03 17:58:09
    {"470a.jpg": 206589, "62043.jpeg": 455219, "Kerry_Louise_006.jpg": 100230, "Kerry_Louise_007.jpg": 126666, "Kerry_Louise_009.jpg": 142811, "Kerry_Louise_011.jpg": 137242, "Kerry.Louise_The.Pornstar.Lady.Pimp.wmv": 203094585}
创建时间: 2019-01-22 01:36:07 大小:194.8 MB 文件数量:7 热度:4 最近下载:2022-11-12 10:54:14
    ... "06.jpg": 212057, "Pimp My Wi_clip.gif": 1673237, "Pimp My Wi_clip1.gif ... ": 2199732, "Pimp My Wife 1x01 ... .avi.jpg": 725092, "Pimp My Wife 1x02.avi.jpg ... .avi.jpg": 727330}, "video": {"Pimp My Wife 1x01.avi": 575866028 ...
创建时间: 2019-01-22 13:56:41 大小:5.32 GB 文件数量:39 热度:162 最近下载:2025-09-21 20:09:04
    {"FutileStruggles.Eden.Punished.By.Her.Pimp-Part.2.XXX.MP4-hUSHhUSH.mp4": 337838451}
创建时间: 2019-01-22 18:37:18 大小:322.19 MB 文件数量:1 热度:4 最近下载:2022-11-15 20:18:49
    {"RARBG.com.txt": 34, "american.pimp.1999.extras.dvdrip.xvid-exvidint.avi": 732340224, "american.pimp.1999.extras.dvdrip.xvid-exvidint.nfo": 7864}
创建时间: 2019-01-23 21:39:11 大小:698.42 MB 文件数量:3 热度:4 最近下载:2022-11-12 10:39:57
    {"gush.hooker.looser.pimp[VR56].mp4": 2519242846}
创建时间: 2019-01-24 01:32:57 大小:2.35 GB 文件数量:1 热度:10 最近下载:2025-02-21 14:55:05
    ... , "Inlay.JPG": 1173147, "08. Skinny Pimp - Pimp Tight.mp3": 10832897, "01. Skinny ... ` Lankin`.mp3": 8204218, "02. Skinny Pimp - Pimp, Killa (feat. Took).mp3": 9997812 ... (skit).mp3": 678329, "02. Skinny Pimp - Pimp, Killa (feat. Took).mp3": 10033306 ...
创建时间: 2019-01-27 12:03:31 大小:4.38 GB 文件数量:654 热度:9 最近下载:2025-07-24 16:49:01
    {"pimp1.4-amd-13.12.zip": 935175854}
创建时间: 2019-01-27 17:56:13 大小:891.85 MB 文件数量:1 热度:7 最近下载:2025-02-24 03:26:01